sensor_id;sensor_type;location;lat;lon;timestamp;pressure;altitude;pressure_sealevel;temperature;humidity
4022;BME280;2025;48.260;16.432;2023-06-14T00:02:00;99575.53;;;11.27;79.13
4022;BME280;2025;48.260;16.432;2023-06-14T00:04:27;99576.97;;;11.30;79.48
4022;BME280;2025;48.260;16.432;2023-06-14T00:06:54;99574.19;;;11.31;79.18
4022;BME280;2025;48.260;16.432;2023-06-14T00:09:22;99576.44;;;11.34;79.15
4022;BME280;2025;48.260;16.432;2023-06-14T00:11:49;99575.09;;;11.38;78.81
4022;BME280;2025;48.260;16.432;2023-06-14T00:14:16;99572.09;;;11.42;78.63
4022;BME280;2025;48.260;16.432;2023-06-14T00:16:43;99566.00;;;11.41;78.31
4022;BME280;2025;48.260;16.432;2023-06-14T00:19:11;99569.47;;;11.42;78.05
4022;BME280;2025;48.260;16.432;2023-06-14T00:21:38;99575.75;;;11.41;78.31
4022;BME280;2025;48.260;16.432;2023-06-14T00:24:07;99576.72;;;11.39;78.30
4022;BME280;2025;48.260;16.432;2023-06-14T00:26:34;99575.75;;;11.41;78.98
4022;BME280;2025;48.260;16.432;2023-06-14T00:29:01;99576.44;;;11.34;78.30
4022;BME280;2025;48.260;16.432;2023-06-14T00:31:28;99582.38;;;11.36;78.54
4022;BME280;2025;48.260;16.432;2023-06-14T00:33:55;99579.09;;;11.34;78.34
4022;BME280;2025;48.260;16.432;2023-06-14T00:36:23;99581.28;;;11.31;78.31
4022;BME280;2025;48.260;16.432;2023-06-14T00:38:56;99571.25;;;11.26;78.44
4022;BME280;2025;48.260;16.432;2023-06-14T00:44:19;99574.69;;;11.12;79.43
4022;BME280;2025;48.260;16.432;2023-06-14T00:46:47;99569.56;;;11.10;79.70
4022;BME280;2025;48.260;16.432;2023-06-14T00:49:14;99576.72;;;11.02;80.46
4022;BME280;2025;48.260;16.432;2023-06-14T00:52:28;99567.88;;;10.94;80.74
4022;BME280;2025;48.260;16.432;2023-06-14T00:54:58;99570.38;;;10.88;80.85
4022;BME280;2025;48.260;16.432;2023-06-14T00:57:25;99567.63;;;10.81;81.01
4022;BME280;2025;48.260;16.432;2023-06-14T01:03:07;99568.88;;;10.70;82.28
4022;BME280;2025;48.260;16.432;2023-06-14T01:05:51;99566.94;;;10.64;82.75
4022;BME280;2025;48.260;16.432;2023-06-14T01:08:28;99567.44;;;10.60;82.70
4022;BME280;2025;48.260;16.432;2023-06-14T01:11:02;99569.78;;;10.54;82.71
4022;BME280;2025;48.260;16.432;2023-06-14T01:13:33;99566.50;;;10.52;82.93
4022;BME280;2025;48.260;16.432;2023-06-14T01:16:02;99565.56;;;10.45;83.69
4022;BME280;2025;48.260;16.432;2023-06-14T01:18:29;99572.81;;;10.43;83.35
4022;BME280;2025;48.260;16.432;2023-06-14T01:20:58;99571.19;;;10.34;83.54
4022;BME280;2025;48.260;16.432;2023-06-14T01:23:26;99562.19;;;10.28;83.35
4022;BME280;2025;48.260;16.432;2023-06-14T01:25:58;99561.03;;;10.23;83.83
4022;BME280;2025;48.260;16.432;2023-06-14T01:28:28;99561.88;;;10.23;83.42
4022;BME280;2025;48.260;16.432;2023-06-14T01:31:00;99555.28;;;10.19;83.45
4022;BME280;2025;48.260;16.432;2023-06-14T01:33:29;99554.94;;;10.22;83.07
4022;BME280;2025;48.260;16.432;2023-06-14T01:35:58;99550.31;;;10.32;82.84
4022;BME280;2025;48.260;16.432;2023-06-14T01:38:27;99550.44;;;10.39;83.28
4022;BME280;2025;48.260;16.432;2023-06-14T01:40:56;99545.66;;;10.43;82.92
4022;BME280;2025;48.260;16.432;2023-06-14T01:43:25;99547.28;;;10.44;83.41
4022;BME280;2025;48.260;16.432;2023-06-14T01:45:54;99543.19;;;10.41;83.46
4022;BME280;2025;48.260;16.432;2023-06-14T01:48:21;99553.72;;;10.41;83.73
4022;BME280;2025;48.260;16.432;2023-06-14T01:50:49;99548.28;;;10.43;83.73
4022;BME280;2025;48.260;16.432;2023-06-14T01:53:16;99548.94;;;10.45;83.88
4022;BME280;2025;48.260;16.432;2023-06-14T01:55:44;99543.84;;;10.43;83.49
4022;BME280;2025;48.260;16.432;2023-06-14T01:58:14;99547.47;;;10.42;83.40
4022;BME280;2025;48.260;16.432;2023-06-14T02:00:42;99551.75;;;10.43;83.34
4022;BME280;2025;48.260;16.432;2023-06-14T02:03:11;99545.78;;;10.49;82.99
4022;BME280;2025;48.260;16.432;2023-06-14T02:05:38;99548.72;;;10.54;82.96
4022;BME280;2025;48.260;16.432;2023-06-14T02:08:06;99539.00;;;10.55;83.20
4022;BME280;2025;48.260;16.432;2023-06-14T02:10:33;99539.94;;;10.62;82.86
4022;BME280;2025;48.260;16.432;2023-06-14T02:13:01;99536.66;;;10.60;82.59
4022;BME280;2025;48.260;16.432;2023-06-14T02:15:28;99540.94;;;10.61;83.22
4022;BME280;2025;48.260;16.432;2023-06-14T02:17:59;99552.28;;;10.62;83.30
4022;BME280;2025;48.260;16.432;2023-06-14T02:20:27;99554.94;;;10.62;84.03
4022;BME280;2025;48.260;16.432;2023-06-14T02:22:54;99546.50;;;10.66;83.70
4022;BME280;2025;48.260;16.432;2023-06-14T02:25:21;99553.88;;;10.71;84.00
4022;BME280;2025;48.260;16.432;2023-06-14T02:27:48;99547.09;;;10.76;83.61
4022;BME280;2025;48.260;16.432;2023-06-14T02:30:17;99544.94;;;10.80;83.18
4022;BME280;2025;48.260;16.432;2023-06-14T02:32:44;99553.81;;;10.79;83.12
4022;BME280;2025;48.260;16.432;2023-06-14T02:35:11;99546.75;;;10.80;82.57
4022;BME280;2025;48.260;16.432;2023-06-14T02:37:38;99550.19;;;10.80;82.60
4022;BME280;2025;48.260;16.432;2023-06-14T02:40:07;99556.13;;;10.82;82.12
4022;BME280;2025;48.260;16.432;2023-06-14T02:42:35;99558.56;;;10.84;81.75
4022;BME280;2025;48.260;16.432;2023-06-14T02:45:02;99564.84;;;10.83;81.70
4022;BME280;2025;48.260;16.432;2023-06-14T02:47:31;99562.69;;;10.86;82.33
4022;BME280;2025;48.260;16.432;2023-06-14T02:49:58;99554.59;;;10.88;81.99
4022;BME280;2025;48.260;16.432;2023-06-14T02:52:24;99555.88;;;10.92;82.02
4022;BME280;2025;48.260;16.432;2023-06-14T02:54:51;99560.13;;;10.93;81.81
4022;BME280;2025;48.260;16.432;2023-06-14T02:57:19;99559.16;;;10.94;81.13
4022;BME280;2025;48.260;16.432;2023-06-14T02:59:46;99561.25;;;10.99;81.15
4022;BME280;2025;48.260;16.432;2023-06-14T03:02:13;99558.78;;;10.97;81.42
4022;BME280;2025;48.260;16.432;2023-06-14T03:04:41;99565.25;;;10.94;81.12
4022;BME280;2025;48.260;16.432;2023-06-14T03:07:10;99557.88;;;10.90;81.11
4022;BME280;2025;48.260;16.432;2023-06-14T03:09:37;99561.50;;;10.89;81.79
4022;BME280;2025;48.260;16.432;2023-06-14T03:12:06;99561.16;;;10.92;83.26
4022;BME280;2025;48.260;16.432;2023-06-14T03:14:34;99567.31;;;10.84;81.93
4022;BME280;2025;48.260;16.432;2023-06-14T03:17:02;99562.56;;;10.80;82.84
4022;BME280;2025;48.260;16.432;2023-06-14T03:19:30;99571.16;;;10.73;82.92
4022;BME280;2025;48.260;16.432;2023-06-14T03:21:58;99577.88;;;10.76;82.64
4022;BME280;2025;48.260;16.432;2023-06-14T03:24:25;99570.09;;;10.83;83.16
4022;BME280;2025;48.260;16.432;2023-06-14T03:26:53;99568.13;;;10.85;82.77
4022;BME280;2025;48.260;16.432;2023-06-14T03:29:20;99573.53;;;10.83;83.40
4022;BME280;2025;48.260;16.432;2023-06-14T03:31:57;99569.00;;;10.77;83.92
4022;BME280;2025;48.260;16.432;2023-06-14T03:34:24;99574.06;;;10.79;83.54
4022;BME280;2025;48.260;16.432;2023-06-14T03:36:51;99579.03;;;10.73;84.05
4022;BME280;2025;48.260;16.432;2023-06-14T03:39:20;99592.06;;;10.75;83.93
4022;BME280;2025;48.260;16.432;2023-06-14T03:41:47;99594.69;;;10.75;84.48
4022;BME280;2025;48.260;16.432;2023-06-14T03:44:16;99603.34;;;10.84;84.33
4022;BME280;2025;48.260;16.432;2023-06-14T03:46:43;99597.88;;;10.93;84.23
4022;BME280;2025;48.260;16.432;2023-06-14T03:49:10;99607.00;;;11.06;84.38
4022;BME280;2025;48.260;16.432;2023-06-14T03:51:37;99608.56;;;11.15;83.81
4022;BME280;2025;48.260;16.432;2023-06-14T03:54:05;99619.69;;;11.25;84.45
4022;BME280;2025;48.260;16.432;2023-06-14T03:56:33;99623.56;;;11.37;83.84
4022;BME280;2025;48.260;16.432;2023-06-14T03:59:01;99623.13;;;11.49;84.26
4022;BME280;2025;48.260;16.432;2023-06-14T04:01:28;99625.69;;;11.57;83.51
4022;BME280;2025;48.260;16.432;2023-06-14T04:03:56;99634.69;;;11.63;83.63
4022;BME280;2025;48.260;16.432;2023-06-14T04:06:24;99634.75;;;11.77;83.17
4022;BME280;2025;48.260;16.432;2023-06-14T04:08:58;99639.59;;;11.89;82.00
4022;BME280;2025;48.260;16.432;2023-06-14T04:11:29;99641.44;;;12.03;80.62
4022;BME280;2025;48.260;16.432;2023-06-14T04:13:57;99648.28;;;12.12;80.65
4022;BME280;2025;48.260;16.432;2023-06-14T04:16:24;99647.81;;;12.23;79.99
4022;BME280;2025;48.260;16.432;2023-06-14T04:18:52;99656.66;;;12.31;80.75
4022;BME280;2025;48.260;16.432;2023-06-14T04:21:20;99650.25;;;12.40;80.31
4022;BME280;2025;48.260;16.432;2023-06-14T04:23:49;99656.09;;;12.50;80.67
4022;BME280;2025;48.260;16.432;2023-06-14T04:26:18;99651.31;;;12.60;79.18
4022;BME280;2025;48.260;16.432;2023-06-14T04:28:46;99653.88;;;12.69;80.52
4022;BME280;2025;48.260;16.432;2023-06-14T04:31:14;99660.50;;;12.79;81.12
4022;BME280;2025;48.260;16.432;2023-06-14T04:33:41;99667.13;;;12.90;79.62
4022;BME280;2025;48.260;16.432;2023-06-14T04:36:11;99665.84;;;13.01;80.91
4022;BME280;2025;48.260;16.432;2023-06-14T04:38:39;99666.78;;;13.15;80.74
4022;BME280;2025;48.260;16.432;2023-06-14T04:41:06;99668.09;;;13.25;78.96
4022;BME280;2025;48.260;16.432;2023-06-14T04:43:37;99664.19;;;13.36;76.40
4022;BME280;2025;48.260;16.432;2023-06-14T04:46:05;99673.88;;;13.51;74.93
4022;BME280;2025;48.260;16.432;2023-06-14T04:48:36;99668.44;;;13.59;71.47
4022;BME280;2025;48.260;16.432;2023-06-14T04:51:06;99673.16;;;13.63;70.63
4022;BME280;2025;48.260;16.432;2023-06-14T04:53:33;99668.16;;;13.75;72.91
4022;BME280;2025;48.260;16.432;2023-06-14T04:56:00;99666.63;;;13.87;71.09
4022;BME280;2025;48.260;16.432;2023-06-14T04:58:28;99667.28;;;13.96;73.52
4022;BME280;2025;48.260;16.432;2023-06-14T05:00:55;99661.19;;;13.96;72.83
4022;BME280;2025;48.260;16.432;2023-06-14T05:03:24;99660.19;;;13.97;73.81
4022;BME280;2025;48.260;16.432;2023-06-14T05:05:53;99664.06;;;14.01;74.17
4022;BME280;2025;48.260;16.432;2023-06-14T05:08:21;99661.84;;;14.04;73.88
4022;BME280;2025;48.260;16.432;2023-06-14T05:10:49;99660.81;;;13.99;71.50
4022;BME280;2025;48.260;16.432;2023-06-14T05:13:16;99666.63;;;13.87;72.69
4022;BME280;2025;48.260;16.432;2023-06-14T05:15:44;99672.50;;;13.83;72.54
4022;BME280;2025;48.260;16.432;2023-06-14T05:18:11;99669.84;;;13.83;72.66
4022;BME280;2025;48.260;16.432;2023-06-14T05:20:38;99667.56;;;13.80;73.66
4022;BME280;2025;48.260;16.432;2023-06-14T05:23:09;99669.81;;;13.76;74.66
4022;BME280;2025;48.260;16.432;2023-06-14T05:25:41;99671.81;;;13.74;73.90
4022;BME280;2025;48.260;16.432;2023-06-14T05:28:08;99669.34;;;13.73;72.03
4022;BME280;2025;48.260;16.432;2023-06-14T05:30:38;99666.84;;;13.64;72.37
4022;BME280;2025;48.260;16.432;2023-06-14T05:33:05;99674.34;;;13.61;70.90
4022;BME280;2025;48.260;16.432;2023-06-14T05:35:32;99672.84;;;13.73;72.72
4022;BME280;2025;48.260;16.432;2023-06-14T05:37:59;99680.09;;;13.93;72.34
4022;BME280;2025;48.260;16.432;2023-06-14T05:40:27;99684.53;;;14.13;71.62
4022;BME280;2025;48.260;16.432;2023-06-14T05:42:54;99686.88;;;14.30;69.22
4022;BME280;2025;48.260;16.432;2023-06-14T05:45:21;99686.44;;;14.54;69.71
4022;BME280;2025;48.260;16.432;2023-06-14T05:47:49;99683.44;;;14.71;70.02
4022;BME280;2025;48.260;16.432;2023-06-14T05:50:16;99691.84;;;14.88;67.95
4022;BME280;2025;48.260;16.432;2023-06-14T05:52:43;99686.81;;;15.00;68.05
4022;BME280;2025;48.260;16.432;2023-06-14T05:55:10;99685.03;;;15.20;64.89
4022;BME280;2025;48.260;16.432;2023-06-14T05:57:39;99689.09;;;15.36;66.35
4022;BME280;2025;48.260;16.432;2023-06-14T06:00:07;99692.78;;;15.35;66.75
4022;BME280;2025;48.260;16.432;2023-06-14T06:02:40;99694.03;;;15.46;63.63
4022;BME280;2025;48.260;16.432;2023-06-14T06:05:08;99695.47;;;15.55;65.54
4022;BME280;2025;48.260;16.432;2023-06-14T06:07:35;99696.69;;;15.52;65.32
4022;BME280;2025;48.260;16.432;2023-06-14T06:10:02;99697.53;;;15.59;65.87
4022;BME280;2025;48.260;16.432;2023-06-14T06:12:30;99702.00;;;15.59;65.37
4022;BME280;2025;48.260;16.432;2023-06-14T06:14:59;99694.47;;;15.63;64.97
4022;BME280;2025;48.260;16.432;2023-06-14T06:17:27;99695.69;;;15.67;64.16
4022;BME280;2025;48.260;16.432;2023-06-14T06:19:54;99708.16;;;15.79;63.81
4022;BME280;2025;48.260;16.432;2023-06-14T06:22:21;99700.00;;;15.88;63.30
4022;BME280;2025;48.260;16.432;2023-06-14T06:24:48;99711.63;;;15.93;62.65
4022;BME280;2025;48.260;16.432;2023-06-14T06:27:15;99712.66;;;16.12;61.80
4022;BME280;2025;48.260;16.432;2023-06-14T06:29:44;99715.31;;;16.12;60.87
4022;BME280;2025;48.260;16.432;2023-06-14T06:32:12;99706.53;;;16.18;63.21
4022;BME280;2025;48.260;16.432;2023-06-14T06:34:39;99714.25;;;16.20;62.49
4022;BME280;2025;48.260;16.432;2023-06-14T06:37:06;99709.97;;;16.32;60.40
4022;BME280;2025;48.260;16.432;2023-06-14T06:39:34;99710.97;;;16.44;57.10
4022;BME280;2025;48.260;16.432;2023-06-14T06:42:01;99719.13;;;16.50;55.87
4022;BME280;2025;48.260;16.432;2023-06-14T06:44:28;99710.75;;;16.53;57.09
4022;BME280;2025;48.260;16.432;2023-06-14T06:46:55;99711.09;;;16.70;58.80
4022;BME280;2025;48.260;16.432;2023-06-14T06:49:23;99707.75;;;16.88;58.29
4022;BME280;2025;48.260;16.432;2023-06-14T06:52:00;99716.16;;;16.91;58.21
4022;BME280;2025;48.260;16.432;2023-06-14T06:54:28;99718.53;;;17.06;57.91
4022;BME280;2025;48.260;16.432;2023-06-14T06:56:55;99703.78;;;17.10;55.51
4022;BME280;2025;48.260;16.432;2023-06-14T06:59:22;99713.78;;;17.15;56.87
4022;BME280;2025;48.260;16.432;2023-06-14T07:01:49;99715.31;;;17.29;58.08
4022;BME280;2025;48.260;16.432;2023-06-14T07:04:16;99713.44;;;17.36;56.73
4022;BME280;2025;48.260;16.432;2023-06-14T07:06:46;99709.13;;;17.42;56.91
4022;BME280;2025;48.260;16.432;2023-06-14T07:09:13;99705.56;;;17.48;54.04
4022;BME280;2025;48.260;16.432;2023-06-14T07:11:43;99710.31;;;17.46;56.51
4022;BME280;2025;48.260;16.432;2023-06-14T07:14:10;99716.41;;;17.53;57.74
4022;BME280;2025;48.260;16.432;2023-06-14T07:16:37;99725.38;;;17.59;55.06
4022;BME280;2025;48.260;16.432;2023-06-14T07:19:04;99719.97;;;17.72;55.14
4022;BME280;2025;48.260;16.432;2023-06-14T07:21:31;99727.91;;;17.79;54.72
4022;BME280;2025;48.260;16.432;2023-06-14T07:24:00;99721.53;;;17.86;54.88
4022;BME280;2025;48.260;16.432;2023-06-14T07:26:27;99723.53;;;17.91;54.84
4022;BME280;2025;48.260;16.432;2023-06-14T07:28:54;99727.16;;;17.97;56.11
4022;BME280;2025;48.260;16.432;2023-06-14T07:31:20;99733.53;;;17.96;57.88
4022;BME280;2025;48.260;16.432;2023-06-14T07:33:47;99726.50;;;18.01;52.09
4022;BME280;2025;48.260;16.432;2023-06-14T07:36:14;99731.78;;;18.08;51.34
4022;BME280;2025;48.260;16.432;2023-06-14T07:38:43;99726.84;;;18.11;54.38
4022;BME280;2025;48.260;16.432;2023-06-14T07:41:12;99730.78;;;18.09;51.04
4022;BME280;2025;48.260;16.432;2023-06-14T07:43:38;99727.44;;;18.14;50.80
4022;BME280;2025;48.260;16.432;2023-06-14T07:46:05;99725.19;;;18.10;51.54
4022;BME280;2025;48.260;16.432;2023-06-14T07:48:33;99728.47;;;18.13;51.24
4022;BME280;2025;48.260;16.432;2023-06-14T07:51:01;99725.34;;;18.16;50.97
4022;BME280;2025;48.260;16.432;2023-06-14T07:53:27;99733.72;;;18.19;51.70
4022;BME280;2025;48.260;16.432;2023-06-14T07:55:56;99733.97;;;18.36;51.35
4022;BME280;2025;48.260;16.432;2023-06-14T07:58:25;99731.25;;;18.43;50.06
4022;BME280;2025;48.260;16.432;2023-06-14T08:00:52;99732.19;;;18.48;52.70
4022;BME280;2025;48.260;16.432;2023-06-14T08:03:18;99732.50;;;18.40;52.22
4022;BME280;2025;48.260;16.432;2023-06-14T08:05:46;99727.09;;;18.47;50.74
4022;BME280;2025;48.260;16.432;2023-06-14T08:08:13;99734.59;;;18.57;51.67
4022;BME280;2025;48.260;16.432;2023-06-14T08:10:40;99735.41;;;18.57;52.63
4022;BME280;2025;48.260;16.432;2023-06-14T08:13:07;99732.94;;;18.74;50.59
4022;BME280;2025;48.260;16.432;2023-06-14T08:15:36;99733.22;;;18.91;50.69
4022;BME280;2025;48.260;16.432;2023-06-14T08:18:03;99732.41;;;18.90;49.33
4022;BME280;2025;48.260;16.432;2023-06-14T08:20:30;99734.59;;;18.93;49.34
4022;BME280;2025;48.260;16.432;2023-06-14T08:22:57;99734.91;;;18.85;50.50
4022;BME280;2025;48.260;16.432;2023-06-14T08:25:24;99742.06;;;19.03;52.73
4022;BME280;2025;48.260;16.432;2023-06-14T08:27:51;99738.56;;;19.21;49.12
4022;BME280;2025;48.260;16.432;2023-06-14T08:30:18;99740.81;;;19.36;50.80
4022;BME280;2025;48.260;16.432;2023-06-14T08:32:47;99738.28;;;19.41;49.01
4022;BME280;2025;48.260;16.432;2023-06-14T08:35:14;99737.59;;;19.46;51.30
4022;BME280;2025;48.260;16.432;2023-06-14T08:37:41;99744.13;;;19.50;47.79
4022;BME280;2025;48.260;16.432;2023-06-14T08:40:18;99740.63;;;19.49;49.03
4022;BME280;2025;48.260;16.432;2023-06-14T08:42:47;99733.34;;;19.56;47.32
4022;BME280;2025;48.260;16.432;2023-06-14T08:45:15;99748.25;;;19.34;49.66
4022;BME280;2025;48.260;16.432;2023-06-14T08:47:42;99739.19;;;19.35;51.69
4022;BME280;2025;48.260;16.432;2023-06-14T08:50:13;99739.59;;;19.50;49.79
4022;BME280;2025;48.260;16.432;2023-06-14T08:52:45;99739.59;;;19.62;47.17
4022;BME280;2025;48.260;16.432;2023-06-14T08:55:16;99736.06;;;19.68;46.43
4022;BME280;2025;48.260;16.432;2023-06-14T08:57:46;99741.44;;;19.80;46.21
4022;BME280;2025;48.260;16.432;2023-06-14T09:00:15;99740.16;;;19.83;48.81
4022;BME280;2025;48.260;16.432;2023-06-14T09:02:42;99738.19;;;19.90;48.16
4022;BME280;2025;48.260;16.432;2023-06-14T09:05:12;99742.72;;;20.01;47.88
4022;BME280;2025;48.260;16.432;2023-06-14T09:07:39;99745.63;;;20.11;47.57
4022;BME280;2025;48.260;16.432;2023-06-14T09:10:08;99742.63;;;19.96;49.29
4022;BME280;2025;48.260;16.432;2023-06-14T09:12:36;99733.91;;;20.00;46.10
4022;BME280;2025;48.260;16.432;2023-06-14T09:15:04;99743.19;;;19.98;44.37
4022;BME280;2025;48.260;16.432;2023-06-14T09:17:33;99746.78;;;20.04;48.79
4022;BME280;2025;48.260;16.432;2023-06-14T09:20:01;99738.56;;;20.05;51.45
4022;BME280;2025;48.260;16.432;2023-06-14T09:22:32;99747.59;;;20.16;43.98
4022;BME280;2025;48.260;16.432;2023-06-14T09:25:00;99747.50;;;19.99;45.08
4022;BME280;2025;48.260;16.432;2023-06-14T09:27:27;99747.97;;;20.08;43.94
4022;BME280;2025;48.260;16.432;2023-06-14T09:29:54;99741.44;;;20.04;50.04
4022;BME280;2025;48.260;16.432;2023-06-14T09:32:22;99732.50;;;19.98;47.63
4022;BME280;2025;48.260;16.432;2023-06-14T09:34:49;99736.94;;;19.62;47.67
4022;BME280;2025;48.260;16.432;2023-06-14T09:37:27;99730.16;;;19.48;45.76
4022;BME280;2025;48.260;16.432;2023-06-14T09:39:56;99736.81;;;19.57;44.10
4022;BME280;2025;48.260;16.432;2023-06-14T09:42:24;99729.56;;;19.76;45.00
4022;BME280;2025;48.260;16.432;2023-06-14T09:44:52;99734.34;;;20.09;45.04
4022;BME280;2025;48.260;16.432;2023-06-14T09:47:20;99724.50;;;20.33;45.25
4022;BME280;2025;48.260;16.432;2023-06-14T09:49:47;99734.00;;;20.65;44.77
4022;BME280;2025;48.260;16.432;2023-06-14T09:52:15;99733.75;;;20.78;46.27
4022;BME280;2025;48.260;16.432;2023-06-14T09:54:43;99734.59;;;20.95;43.89
4022;BME280;2025;48.260;16.432;2023-06-14T09:57:14;99731.09;;;21.07;42.95
4022;BME280;2025;48.260;16.432;2023-06-14T09:59:43;99725.88;;;21.00;47.75
4022;BME280;2025;48.260;16.432;2023-06-14T10:02:17;99725.81;;;21.12;42.45
4022;BME280;2025;48.260;16.432;2023-06-14T10:04:46;99731.13;;;21.23;45.06
4022;BME280;2025;48.260;16.432;2023-06-14T10:07:19;99726.81;;;21.51;42.65
4022;BME280;2025;48.260;16.432;2023-06-14T10:09:47;99727.81;;;21.79;41.08
4022;BME280;2025;48.260;16.432;2023-06-14T10:12:17;99728.31;;;21.93;43.09
4022;BME280;2025;48.260;16.432;2023-06-14T10:14:49;99723.66;;;22.05;39.45
4022;BME280;2025;48.260;16.432;2023-06-14T10:17:24;99722.47;;;21.79;39.59
4022;BME280;2025;48.260;16.432;2023-06-14T10:19:56;99731.41;;;21.39;40.33
4022;BME280;2025;48.260;16.432;2023-06-14T10:22:30;99719.69;;;21.28;40.79
4022;BME280;2025;48.260;16.432;2023-06-14T10:24:59;99719.63;;;21.85;38.82
4022;BME280;2025;48.260;16.432;2023-06-14T10:27:28;99716.97;;;22.63;37.23
4022;BME280;2025;48.260;16.432;2023-06-14T10:30:03;99715.56;;;23.22;35.49
4022;BME280;2025;48.260;16.432;2023-06-14T10:32:31;99724.94;;;23.51;35.22
4022;BME280;2025;48.260;16.432;2023-06-14T10:34:59;99719.69;;;23.62;34.61
4022;BME280;2025;48.260;16.432;2023-06-14T10:37:27;99728.84;;;23.11;36.38
4022;BME280;2025;48.260;16.432;2023-06-14T10:39:54;99729.41;;;22.69;38.23
4022;BME280;2025;48.260;16.432;2023-06-14T10:42:21;99723.44;;;22.23;40.32
4022;BME280;2025;48.260;16.432;2023-06-14T10:44:53;99714.94;;;22.48;36.23
4022;BME280;2025;48.260;16.432;2023-06-14T10:47:25;99716.75;;;22.65;39.74
4022;BME280;2025;48.260;16.432;2023-06-14T10:49:53;99710.00;;;23.06;37.21
4022;BME280;2025;48.260;16.432;2023-06-14T10:52:25;99707.66;;;23.42;39.42
4022;BME280;2025;48.260;16.432;2023-06-14T10:55:08;99713.44;;;23.56;33.96
4022;BME280;2025;48.260;16.432;2023-06-14T10:57:37;99713.41;;;23.24;34.82
4022;BME280;2025;48.260;16.432;2023-06-14T11:00:08;99711.19;;;22.49;35.95
4022;BME280;2025;48.260;16.432;2023-06-14T11:06:14;99708.19;;;21.27;41.05
4022;BME280;2025;48.260;16.432;2023-06-14T11:11:38;99697.97;;;21.24;38.92
4022;BME280;2025;48.260;16.432;2023-06-14T11:14:08;99697.97;;;21.24;39.51
4022;BME280;2025;48.260;16.432;2023-06-14T11:16:36;99694.72;;;21.39;39.41
4022;BME280;2025;48.260;16.432;2023-06-14T11:19:03;99704.50;;;21.45;38.66
4022;BME280;2025;48.260;16.432;2023-06-14T11:21:32;99704.44;;;21.57;39.80
4022;BME280;2025;48.260;16.432;2023-06-14T11:23:59;99701.59;;;21.47;38.88
4022;BME280;2025;48.260;16.432;2023-06-14T11:26:26;99697.13;;;21.53;38.92
4022;BME280;2025;48.260;16.432;2023-06-14T11:28:57;99692.56;;;21.53;38.52
4022;BME280;2025;48.260;16.432;2023-06-14T11:31:25;99690.09;;;21.35;39.44
4022;BME280;2025;48.260;16.432;2023-06-14T11:33:55;99698.75;;;21.25;39.77
4022;BME280;2025;48.260;16.432;2023-06-14T11:36:22;99700.06;;;21.22;39.58
4022;BME280;2025;48.260;16.432;2023-06-14T11:38:50;99696.16;;;21.30;38.75
4022;BME280;2025;48.260;16.432;2023-06-14T11:41:17;99704.25;;;21.18;40.10
4022;BME280;2025;48.260;16.432;2023-06-14T11:43:44;99700.03;;;21.05;39.17
4022;BME280;2025;48.260;16.432;2023-06-14T11:46:14;99693.06;;;20.93;46.84
4022;BME280;2025;48.260;16.432;2023-06-14T11:48:43;99694.41;;;21.07;41.54
4022;BME280;2025;48.260;16.432;2023-06-14T11:51:12;99690.28;;;21.16;41.01
4022;BME280;2025;48.260;16.432;2023-06-14T11:53:39;99689.13;;;21.24;41.00
4022;BME280;2025;48.260;16.432;2023-06-14T11:56:06;99690.81;;;21.30;40.88
4022;BME280;2025;48.260;16.432;2023-06-14T11:58:33;99686.25;;;21.42;41.14
4022;BME280;2025;48.260;16.432;2023-06-14T12:01:03;99687.47;;;21.52;42.49
4022;BME280;2025;48.260;16.432;2023-06-14T12:03:30;99684.88;;;21.40;39.22
4022;BME280;2025;48.260;16.432;2023-06-14T12:06:07;99687.19;;;21.36;38.89
4022;BME280;2025;48.260;16.432;2023-06-14T12:08:36;99688.63;;;21.73;39.47
4022;BME280;2025;48.260;16.432;2023-06-14T12:11:06;99687.34;;;22.31;36.23
4022;BME280;2025;48.260;16.432;2023-06-14T12:13:34;99682.53;;;22.77;36.16
4022;BME280;2025;48.260;16.432;2023-06-14T12:16:02;99680.22;;;23.08;35.18
4022;BME280;2025;48.260;16.432;2023-06-14T12:18:34;99673.34;;;23.17;36.38
4022;BME280;2025;48.260;16.432;2023-06-14T12:21:04;99665.34;;;23.27;36.54
4022;BME280;2025;48.260;16.432;2023-06-14T12:23:46;99656.53;;;23.32;37.72
4022;BME280;2025;48.260;16.432;2023-06-14T12:26:14;99657.44;;;23.43;35.41
4022;BME280;2025;48.260;16.432;2023-06-14T12:28:42;99657.56;;;23.63;36.50
4022;BME280;2025;48.260;16.432;2023-06-14T12:31:10;99665.31;;;23.54;33.75
4022;BME280;2025;48.260;16.432;2023-06-14T12:33:38;99666.84;;;23.45;33.83
4022;BME280;2025;48.260;16.432;2023-06-14T12:36:07;99669.75;;;23.11;35.41
4022;BME280;2025;48.260;16.432;2023-06-14T12:38:34;99661.88;;;23.00;34.76
4022;BME280;2025;48.260;16.432;2023-06-14T12:41:03;99662.06;;;22.71;33.88
4022;BME280;2025;48.260;16.432;2023-06-14T12:43:30;99669.03;;;23.21;34.56
4022;BME280;2025;48.260;16.432;2023-06-14T12:45:57;99662.50;;;23.39;33.73
4022;BME280;2025;48.260;16.432;2023-06-14T12:48:24;99661.91;;;23.64;34.25
4022;BME280;2025;48.260;16.432;2023-06-14T12:50:52;99665.72;;;23.73;33.85
4022;BME280;2025;48.260;16.432;2023-06-14T12:53:19;99658.28;;;23.81;34.24
4022;BME280;2025;48.260;16.432;2023-06-14T12:55:47;99650.94;;;23.39;33.87
4022;BME280;2025;48.260;16.432;2023-06-14T12:58:15;99661.03;;;23.26;35.30
4022;BME280;2025;48.260;16.432;2023-06-14T13:00:45;99650.28;;;23.26;34.55
4022;BME280;2025;48.260;16.432;2023-06-14T13:03:12;99655.34;;;23.50;34.80
4022;BME280;2025;48.260;16.432;2023-06-14T13:05:38;99651.31;;;23.85;33.67
4022;BME280;2025;48.260;16.432;2023-06-14T13:08:07;99653.66;;;24.24;32.11
4022;BME280;2025;48.260;16.432;2023-06-14T13:10:34;99642.75;;;24.46;32.67
4022;BME280;2025;48.260;16.432;2023-06-14T13:13:01;99646.91;;;24.69;31.54
4022;BME280;2025;48.260;16.432;2023-06-14T13:15:30;99643.91;;;24.60;32.77
4022;BME280;2025;48.260;16.432;2023-06-14T13:17:57;99653.16;;;24.27;32.46
4022;BME280;2025;48.260;16.432;2023-06-14T13:20:24;99647.16;;;23.72;33.04
4022;BME280;2025;48.260;16.432;2023-06-14T13:22:51;99647.03;;;23.56;32.22
4022;BME280;2025;48.260;16.432;2023-06-14T13:25:18;99641.19;;;23.27;33.22
4022;BME280;2025;48.260;16.432;2023-06-14T13:27:46;99640.06;;;23.55;32.79
4022;BME280;2025;48.260;16.432;2023-06-14T13:30:13;99644.03;;;23.80;33.45